sensor_id;sensor_type;location;lat;lon;timestamp;P1;durP1;ratioP1;P2;durP2;ratioP2
65831;SDS011;52593;42.648;23.332;2023-03-31T00:00:20;9.03;;;3.50;;
65831;SDS011;52593;42.648;23.332;2023-03-31T00:02:45;8.90;;;3.60;;
65831;SDS011;52593;42.648;23.332;2023-03-31T00:05:11;11.30;;;3.67;;
65831;SDS011;52593;42.648;23.332;2023-03-31T00:07:41;10.38;;;3.45;;
65831;SDS011;52593;42.648;23.332;2023-03-31T00:10:08;8.90;;;3.63;;
65831;SDS011;52593;42.648;23.332;2023-03-31T00:12:34;9.30;;;3.50;;
65831;SDS011;52593;42.648;23.332;2023-03-31T00:15:00;10.63;;;3.58;;
65831;SDS011;52593;42.648;23.332;2023-03-31T00:17:26;9.60;;;3.23;;
65831;SDS011;52593;42.648;23.332;2023-03-31T00:19:51;8.77;;;3.20;;
65831;SDS011;52593;42.648;23.332;2023-03-31T00:22:17;10.90;;;3.55;;
65831;SDS011;52593;42.648;23.332;2023-03-31T00:24:46;10.38;;;3.28;;
65831;SDS011;52593;42.648;23.332;2023-03-31T00:27:11;9.07;;;3.03;;
65831;SDS011;52593;42.648;23.332;2023-03-31T00:29:37;9.02;;;3.00;;
65831;SDS011;52593;42.648;23.332;2023-03-31T00:32:06;7.82;;;3.03;;
65831;SDS011;52593;42.648;23.332;2023-03-31T00:34:32;8.60;;;3.00;;
65831;SDS011;52593;42.648;23.332;2023-03-31T00:36:58;9.50;;;3.03;;
65831;SDS011;52593;42.648;23.332;2023-03-31T00:39:27;10.50;;;3.20;;
65831;SDS011;52593;42.648;23.332;2023-03-31T00:41:56;7.00;;;2.78;;
65831;SDS011;52593;42.648;23.332;2023-03-31T00:44:23;7.47;;;2.80;;
65831;SDS011;52593;42.648;23.332;2023-03-31T00:49:36;11.05;;;3.00;;
65831;SDS011;52593;42.648;23.332;2023-03-31T00:54:49;11.52;;;2.97;;
65831;SDS011;52593;42.648;23.332;2023-03-31T00:57:18;11.63;;;3.30;;
65831;SDS011;52593;42.648;23.332;2023-03-31T00:59:55;10.93;;;3.30;;
65831;SDS011;52593;42.648;23.332;2023-03-31T01:02:26;9.38;;;3.10;;
65831;SDS011;52593;42.648;23.332;2023-03-31T01:04:56;7.45;;;2.90;;
65831;SDS011;52593;42.648;23.332;2023-03-31T01:10:03;8.90;;;2.72;;
65831;SDS011;52593;42.648;23.332;2023-03-31T01:12:31;8.83;;;3.00;;
65831;SDS011;52593;42.648;23.332;2023-03-31T01:14:58;8.30;;;3.40;;
65831;SDS011;52593;42.648;23.332;2023-03-31T01:17:24;8.30;;;3.08;;
65831;SDS011;52593;42.648;23.332;2023-03-31T01:42:34;11.02;;;3.80;;
65831;SDS011;52593;42.648;23.332;2023-03-31T01:50:22;13.30;;;3.78;;
65831;SDS011;52593;42.648;23.332;2023-03-31T01:55:41;13.48;;;3.70;;
65831;SDS011;52593;42.648;23.332;2023-03-31T01:58:16;13.68;;;3.90;;
65831;SDS011;52593;42.648;23.332;2023-03-31T02:01:32;11.80;;;3.92;;
65831;SDS011;52593;42.648;23.332;2023-03-31T02:04:12;14.82;;;4.88;;
65831;SDS011;52593;42.648;23.332;2023-03-31T02:06:42;12.20;;;4.63;;
65831;SDS011;52593;42.648;23.332;2023-03-31T02:09:19;14.45;;;5.03;;
65831;SDS011;52593;42.648;23.332;2023-03-31T02:11:48;14.82;;;5.95;;
65831;SDS011;52593;42.648;23.332;2023-03-31T02:14:17;14.50;;;5.15;;
65831;SDS011;52593;42.648;23.332;2023-03-31T02:16:46;13.95;;;5.50;;
65831;SDS011;52593;42.648;23.332;2023-03-31T02:19:16;14.23;;;4.80;;
65831;SDS011;52593;42.648;23.332;2023-03-31T02:21:46;12.88;;;4.78;;
65831;SDS011;52593;42.648;23.332;2023-03-31T02:24:15;12.65;;;4.93;;
65831;SDS011;52593;42.648;23.332;2023-03-31T02:26:55;13.00;;;4.28;;
65831;SDS011;52593;42.648;23.332;2023-03-31T02:29:28;12.65;;;4.78;;
65831;SDS011;52593;42.648;23.332;2023-03-31T02:34:19;14.80;;;5.67;;
65831;SDS011;52593;42.648;23.332;2023-03-31T02:36:45;16.83;;;6.15;;
65831;SDS011;52593;42.648;23.332;2023-03-31T02:39:12;14.30;;;5.73;;
65831;SDS011;52593;42.648;23.332;2023-03-31T02:41:41;9.13;;;3.15;;
65831;SDS011;52593;42.648;23.332;2023-03-31T02:44:07;9.52;;;2.83;;
65831;SDS011;52593;42.648;23.332;2023-03-31T02:46:33;10.38;;;3.50;;
65831;SDS011;52593;42.648;23.332;2023-03-31T02:48:59;8.20;;;3.03;;
65831;SDS011;52593;42.648;23.332;2023-03-31T03:10:20;5.78;;;1.70;;
65831;SDS011;52593;42.648;23.332;2023-03-31T03:13:08;5.30;;;1.63;;
65831;SDS011;52593;42.648;23.332;2023-03-31T03:15:47;6.80;;;1.33;;
65831;SDS011;52593;42.648;23.332;2023-03-31T03:18:18;5.45;;;1.40;;
65831;SDS011;52593;42.648;23.332;2023-03-31T03:20:43;5.67;;;1.37;;
65831;SDS011;52593;42.648;23.332;2023-03-31T03:23:15;6.03;;;1.50;;
65831;SDS011;52593;42.648;23.332;2023-03-31T03:25:41;4.32;;;1.50;;
65831;SDS011;52593;42.648;23.332;2023-03-31T03:28:07;5.78;;;1.38;;
65831;SDS011;52593;42.648;23.332;2023-03-31T03:30:33;6.73;;;1.70;;
65831;SDS011;52593;42.648;23.332;2023-03-31T03:32:58;6.33;;;1.40;;
65831;SDS011;52593;42.648;23.332;2023-03-31T03:35:24;7.27;;;1.60;;
65831;SDS011;52593;42.648;23.332;2023-03-31T03:37:49;6.10;;;1.52;;
65831;SDS011;52593;42.648;23.332;2023-03-31T03:40:15;6.97;;;1.37;;
65831;SDS011;52593;42.648;23.332;2023-03-31T03:42:41;5.25;;;1.60;;
65831;SDS011;52593;42.648;23.332;2023-03-31T03:45:06;9.23;;;1.60;;
65831;SDS011;52593;42.648;23.332;2023-03-31T03:47:32;5.23;;;1.30;;
65831;SDS011;52593;42.648;23.332;2023-03-31T03:49:58;7.80;;;1.73;;
65831;SDS011;52593;42.648;23.332;2023-03-31T03:52:23;7.60;;;2.03;;
65831;SDS011;52593;42.648;23.332;2023-03-31T03:54:49;5.90;;;1.77;;
65831;SDS011;52593;42.648;23.332;2023-03-31T03:57:14;6.43;;;1.93;;
65831;SDS011;52593;42.648;23.332;2023-03-31T03:59:40;6.90;;;2.30;;
65831;SDS011;52593;42.648;23.332;2023-03-31T04:02:05;7.23;;;2.27;;
65831;SDS011;52593;42.648;23.332;2023-03-31T04:04:31;7.93;;;3.22;;
65831;SDS011;52593;42.648;23.332;2023-03-31T04:06:56;8.67;;;3.00;;
65831;SDS011;52593;42.648;23.332;2023-03-31T04:09:22;10.63;;;3.50;;
65831;SDS011;52593;42.648;23.332;2023-03-31T04:11:47;11.23;;;3.70;;
65831;SDS011;52593;42.648;23.332;2023-03-31T04:14:12;12.20;;;4.30;;
65831;SDS011;52593;42.648;23.332;2023-03-31T04:16:38;7.28;;;3.47;;
65831;SDS011;52593;42.648;23.332;2023-03-31T04:19:04;10.70;;;3.30;;
65831;SDS011;52593;42.648;23.332;2023-03-31T04:21:31;8.88;;;3.33;;
65831;SDS011;52593;42.648;23.332;2023-03-31T04:23:58;10.63;;;3.33;;
65831;SDS011;52593;42.648;23.332;2023-03-31T04:26:32;10.93;;;3.38;;
65831;SDS011;52593;42.648;23.332;2023-03-31T04:29:11;9.05;;;3.30;;
65831;SDS011;52593;42.648;23.332;2023-03-31T04:31:38;12.00;;;3.77;;
65831;SDS011;52593;42.648;23.332;2023-03-31T04:34:06;7.90;;;3.55;;
65831;SDS011;52593;42.648;23.332;2023-03-31T04:36:42;9.50;;;3.95;;
65831;SDS011;52593;42.648;23.332;2023-03-31T04:39:13;9.50;;;4.03;;
65831;SDS011;52593;42.648;23.332;2023-03-31T04:41:54;9.98;;;4.18;;
65831;SDS011;52593;42.648;23.332;2023-03-31T04:44:24;11.40;;;3.77;;
65831;SDS011;52593;42.648;23.332;2023-03-31T04:46:50;11.07;;;4.50;;
65831;SDS011;52593;42.648;23.332;2023-03-31T04:49:15;9.35;;;4.07;;
65831;SDS011;52593;42.648;23.332;2023-03-31T04:51:40;9.50;;;3.87;;
65831;SDS011;52593;42.648;23.332;2023-03-31T04:54:06;11.10;;;3.80;;
65831;SDS011;52593;42.648;23.332;2023-03-31T04:56:31;10.03;;;4.17;;
65831;SDS011;52593;42.648;23.332;2023-03-31T04:58:58;10.55;;;4.53;;
65831;SDS011;52593;42.648;23.332;2023-03-31T05:01:23;14.40;;;5.80;;
65831;SDS011;52593;42.648;23.332;2023-03-31T05:03:48;10.23;;;5.17;;
65831;SDS011;52593;42.648;23.332;2023-03-31T05:06:14;10.90;;;4.43;;
65831;SDS011;52593;42.648;23.332;2023-03-31T05:08:40;12.43;;;4.60;;
65831;SDS011;52593;42.648;23.332;2023-03-31T05:11:06;12.35;;;4.93;;
65831;SDS011;52593;42.648;23.332;2023-03-31T05:13:31;10.83;;;4.20;;
65831;SDS011;52593;42.648;23.332;2023-03-31T05:15:57;10.80;;;4.57;;
65831;SDS011;52593;42.648;23.332;2023-03-31T05:18:22;10.48;;;4.60;;
65831;SDS011;52593;42.648;23.332;2023-03-31T05:20:48;12.27;;;4.63;;
65831;SDS011;52593;42.648;23.332;2023-03-31T05:23:13;8.80;;;4.13;;
65831;SDS011;52593;42.648;23.332;2023-03-31T05:25:39;11.60;;;3.70;;
65831;SDS011;52593;42.648;23.332;2023-03-31T05:28:06;12.73;;;4.22;;
65831;SDS011;52593;42.648;23.332;2023-03-31T05:30:32;11.45;;;4.40;;
65831;SDS011;52593;42.648;23.332;2023-03-31T05:32:58;13.53;;;4.00;;
65831;SDS011;52593;42.648;23.332;2023-03-31T05:35:23;11.07;;;4.50;;
65831;SDS011;52593;42.648;23.332;2023-03-31T05:37:49;9.50;;;4.30;;
65831;SDS011;52593;42.648;23.332;2023-03-31T05:40:14;11.20;;;4.32;;
65831;SDS011;52593;42.648;23.332;2023-03-31T05:42:40;10.07;;;4.23;;
65831;SDS011;52593;42.648;23.332;2023-03-31T05:45:06;9.90;;;4.07;;
65831;SDS011;52593;42.648;23.332;2023-03-31T05:47:31;10.87;;;4.40;;
65831;SDS011;52593;42.648;23.332;2023-03-31T05:49:57;11.73;;;4.37;;
65831;SDS011;52593;42.648;23.332;2023-03-31T05:52:22;14.60;;;5.00;;
65831;SDS011;52593;42.648;23.332;2023-03-31T05:54:48;12.57;;;4.90;;
65831;SDS011;52593;42.648;23.332;2023-03-31T05:57:13;12.80;;;5.40;;
65831;SDS011;52593;42.648;23.332;2023-03-31T05:59:39;13.30;;;5.45;;
65831;SDS011;52593;42.648;23.332;2023-03-31T06:02:06;11.80;;;5.53;;
65831;SDS011;52593;42.648;23.332;2023-03-31T06:04:32;13.33;;;5.47;;
65831;SDS011;52593;42.648;23.332;2023-03-31T06:06:58;13.80;;;5.32;;
65831;SDS011;52593;42.648;23.332;2023-03-31T06:09:24;12.27;;;4.80;;
65831;SDS011;52593;42.648;23.332;2023-03-31T06:11:50;17.27;;;6.78;;
65831;SDS011;52593;42.648;23.332;2023-03-31T06:14:15;16.13;;;6.15;;
65831;SDS011;52593;42.648;23.332;2023-03-31T06:16:41;15.63;;;5.70;;
65831;SDS011;52593;42.648;23.332;2023-03-31T06:19:06;15.43;;;5.70;;
65831;SDS011;52593;42.648;23.332;2023-03-31T06:21:32;12.13;;;5.65;;
65831;SDS011;52593;42.648;23.332;2023-03-31T06:23:58;14.50;;;6.10;;
65831;SDS011;52593;42.648;23.332;2023-03-31T06:26:24;16.15;;;6.65;;
65831;SDS011;52593;42.648;23.332;2023-03-31T06:28:50;16.52;;;6.50;;
65831;SDS011;52593;42.648;23.332;2023-03-31T06:31:16;14.43;;;7.10;;
65831;SDS011;52593;42.648;23.332;2023-03-31T06:33:43;14.32;;;6.30;;
65831;SDS011;52593;42.648;23.332;2023-03-31T06:36:10;18.10;;;6.75;;
65831;SDS011;52593;42.648;23.332;2023-03-31T06:38:38;14.23;;;6.20;;
65831;SDS011;52593;42.648;23.332;2023-03-31T06:41:05;19.65;;;7.38;;
65831;SDS011;52593;42.648;23.332;2023-03-31T06:43:32;13.30;;;6.22;;
65831;SDS011;52593;42.648;23.332;2023-03-31T06:45:57;13.07;;;6.37;;
65831;SDS011;52593;42.648;23.332;2023-03-31T06:48:23;18.33;;;6.55;;
65831;SDS011;52593;42.648;23.332;2023-03-31T06:50:50;16.35;;;6.97;;
65831;SDS011;52593;42.648;23.332;2023-03-31T06:53:17;20.85;;;7.50;;
65831;SDS011;52593;42.648;23.332;2023-03-31T06:55:43;15.90;;;6.97;;
65831;SDS011;52593;42.648;23.332;2023-03-31T06:58:08;16.83;;;7.60;;
65831;SDS011;52593;42.648;23.332;2023-03-31T07:00:33;17.17;;;7.10;;
65831;SDS011;52593;42.648;23.332;2023-03-31T07:02:59;17.07;;;6.53;;
65831;SDS011;52593;42.648;23.332;2023-03-31T07:05:25;16.27;;;7.13;;
65831;SDS011;52593;42.648;23.332;2023-03-31T07:07:52;16.08;;;6.45;;
65831;SDS011;52593;42.648;23.332;2023-03-31T07:10:19;16.80;;;6.00;;
65831;SDS011;52593;42.648;23.332;2023-03-31T07:12:44;16.10;;;6.07;;
65831;SDS011;52593;42.648;23.332;2023-03-31T07:15:10;14.87;;;5.77;;
65831;SDS011;52593;42.648;23.332;2023-03-31T07:17:35;15.60;;;5.55;;
65831;SDS011;52593;42.648;23.332;2023-03-31T07:20:02;16.33;;;6.30;;
65831;SDS011;52593;42.648;23.332;2023-03-31T07:22:28;12.10;;;5.18;;
65831;SDS011;52593;42.648;23.332;2023-03-31T07:24:54;20.05;;;5.65;;
65831;SDS011;52593;42.648;23.332;2023-03-31T07:27:20;15.13;;;5.67;;
65831;SDS011;52593;42.648;23.332;2023-03-31T07:29:45;11.83;;;4.87;;
65831;SDS011;52593;42.648;23.332;2023-03-31T07:32:10;14.90;;;4.93;;
65831;SDS011;52593;42.648;23.332;2023-03-31T07:34:36;12.30;;;4.60;;
65831;SDS011;52593;42.648;23.332;2023-03-31T07:37:02;11.32;;;5.18;;
65831;SDS011;52593;42.648;23.332;2023-03-31T07:39:28;19.52;;;8.30;;
65831;SDS011;52593;42.648;23.332;2023-03-31T07:41:53;11.87;;;4.87;;
65831;SDS011;52593;42.648;23.332;2023-03-31T07:44:19;10.37;;;4.13;;
65831;SDS011;52593;42.648;23.332;2023-03-31T07:46:45;13.38;;;4.45;;
65831;SDS011;52593;42.648;23.332;2023-03-31T07:49:11;9.27;;;3.67;;
65831;SDS011;52593;42.648;23.332;2023-03-31T07:51:39;12.63;;;3.78;;
65831;SDS011;52593;42.648;23.332;2023-03-31T07:54:05;10.33;;;4.20;;
65831;SDS011;52593;42.648;23.332;2023-03-31T07:56:31;8.82;;;3.53;;
65831;SDS011;52593;42.648;23.332;2023-03-31T07:58:56;9.70;;;3.50;;
65831;SDS011;52593;42.648;23.332;2023-03-31T08:01:21;8.63;;;3.40;;
65831;SDS011;52593;42.648;23.332;2023-03-31T08:03:50;10.18;;;3.40;;
65831;SDS011;52593;42.648;23.332;2023-03-31T08:06:18;11.43;;;3.05;;
65831;SDS011;52593;42.648;23.332;2023-03-31T08:08:45;8.77;;;3.13;;
65831;SDS011;52593;42.648;23.332;2023-03-31T08:11:11;7.28;;;2.28;;
65831;SDS011;52593;42.648;23.332;2023-03-31T08:13:36;7.93;;;3.00;;
65831;SDS011;52593;42.648;23.332;2023-03-31T08:16:02;6.20;;;2.23;;
65831;SDS011;52593;42.648;23.332;2023-03-31T08:18:28;6.68;;;2.25;;
65831;SDS011;52593;42.648;23.332;2023-03-31T08:20:54;7.78;;;2.67;;
65831;SDS011;52593;42.648;23.332;2023-03-31T08:23:19;6.17;;;2.20;;
65831;SDS011;52593;42.648;23.332;2023-03-31T08:25:45;7.00;;;2.50;;
65831;SDS011;52593;42.648;23.332;2023-03-31T08:28:11;7.18;;;2.10;;
65831;SDS011;52593;42.648;23.332;2023-03-31T08:30:38;5.18;;;1.80;;
65831;SDS011;52593;42.648;23.332;2023-03-31T08:33:03;7.85;;;2.97;;
65831;SDS011;52593;42.648;23.332;2023-03-31T08:35:29;8.03;;;1.83;;
65831;SDS011;52593;42.648;23.332;2023-03-31T08:37:55;8.27;;;2.38;;
65831;SDS011;52593;42.648;23.332;2023-03-31T08:40:22;5.17;;;1.47;;
65831;SDS011;52593;42.648;23.332;2023-03-31T08:43:11;6.30;;;2.13;;
65831;SDS011;52593;42.648;23.332;2023-03-31T08:45:41;9.32;;;2.25;;
65831;SDS011;52593;42.648;23.332;2023-03-31T08:51:02;6.65;;;1.88;;
65831;SDS011;52593;42.648;23.332;2023-03-31T08:53:33;7.07;;;2.15;;
65831;SDS011;52593;42.648;23.332;2023-03-31T08:56:04;6.72;;;1.95;;
65831;SDS011;52593;42.648;23.332;2023-03-31T09:06:38;6.77;;;1.97;;
65831;SDS011;52593;42.648;23.332;2023-03-31T09:09:10;6.03;;;1.52;;
65831;SDS011;52593;42.648;23.332;2023-03-31T09:11:52;6.70;;;1.42;;
65831;SDS011;52593;42.648;23.332;2023-03-31T09:14:38;7.55;;;1.55;;
65831;SDS011;52593;42.648;23.332;2023-03-31T09:19:47;4.38;;;1.30;;
65831;SDS011;52593;42.648;23.332;2023-03-31T09:22:18;6.47;;;1.75;;
65831;SDS011;52593;42.648;23.332;2023-03-31T09:27:16;6.63;;;2.00;;
65831;SDS011;52593;42.648;23.332;2023-03-31T09:32:17;6.30;;;1.73;;
65831;SDS011;52593;42.648;23.332;2023-03-31T09:34:52;7.05;;;1.70;;
65831;SDS011;52593;42.648;23.332;2023-03-31T09:37:25;7.07;;;1.60;;
65831;SDS011;52593;42.648;23.332;2023-03-31T09:39:54;7.65;;;1.80;;
65831;SDS011;52593;42.648;23.332;2023-03-31T09:42:22;6.87;;;1.70;;
65831;SDS011;52593;42.648;23.332;2023-03-31T09:44:47;7.28;;;1.50;;
65831;SDS011;52593;42.648;23.332;2023-03-31T09:49:53;4.85;;;1.10;;
65831;SDS011;52593;42.648;23.332;2023-03-31T09:52:36;6.00;;;1.60;;
65831;SDS011;52593;42.648;23.332;2023-03-31T09:55:27;6.63;;;1.58;;
65831;SDS011;52593;42.648;23.332;2023-03-31T09:58:00;9.27;;;1.80;;
65831;SDS011;52593;42.648;23.332;2023-03-31T10:00:28;5.78;;;1.80;;
65831;SDS011;52593;42.648;23.332;2023-03-31T10:02:54;5.27;;;1.37;;
65831;SDS011;52593;42.648;23.332;2023-03-31T10:05:36;8.00;;;1.48;;
65831;SDS011;52593;42.648;23.332;2023-03-31T10:08:29;6.82;;;1.70;;
65831;SDS011;52593;42.648;23.332;2023-03-31T10:11:05;8.43;;;1.87;;
65831;SDS011;52593;42.648;23.332;2023-03-31T10:19:10;7.45;;;1.52;;
65831;SDS011;52593;42.648;23.332;2023-03-31T10:21:47;7.32;;;1.73;;
65831;SDS011;52593;42.648;23.332;2023-03-31T10:24:19;7.47;;;1.77;;
65831;SDS011;52593;42.648;23.332;2023-03-31T10:26:49;5.13;;;1.50;;
65831;SDS011;52593;42.648;23.332;2023-03-31T10:29:31;7.03;;;1.70;;
65831;SDS011;52593;42.648;23.332;2023-03-31T10:32:08;6.97;;;1.70;;
65831;SDS011;52593;42.648;23.332;2023-03-31T10:34:41;7.72;;;1.60;;
65831;SDS011;52593;42.648;23.332;2023-03-31T10:37:09;5.53;;;1.73;;
65831;SDS011;52593;42.648;23.332;2023-03-31T10:39:40;6.18;;;1.77;;
65831;SDS011;52593;42.648;23.332;2023-03-31T10:42:07;6.78;;;2.05;;
65831;SDS011;52593;42.648;23.332;2023-03-31T10:44:34;7.50;;;1.52;;
65831;SDS011;52593;42.648;23.332;2023-03-31T10:47:16;6.30;;;1.50;;
65831;SDS011;52593;42.648;23.332;2023-03-31T10:49:47;6.40;;;1.42;;
65831;SDS011;52593;42.648;23.332;2023-03-31T10:52:16;7.20;;;1.45;;
65831;SDS011;52593;42.648;23.332;2023-03-31T10:54:47;5.68;;;1.38;;
65831;SDS011;52593;42.648;23.332;2023-03-31T10:57:14;7.13;;;1.60;;
65831;SDS011;52593;42.648;23.332;2023-03-31T11:08:39;5.85;;;1.65;;
65831;SDS011;52593;42.648;23.332;2023-03-31T11:32:51;7.28;;;1.95;;
65831;SDS011;52593;42.648;23.332;2023-03-31T11:39:02;6.22;;;2.03;;
65831;SDS011;52593;42.648;23.332;2023-03-31T11:41:36;7.65;;;1.80;;
65831;SDS011;52593;42.648;23.332;2023-03-31T11:44:08;7.90;;;1.83;;
65831;SDS011;52593;42.648;23.332;2023-03-31T11:49:40;7.90;;;1.90;;
65831;SDS011;52593;42.648;23.332;2023-03-31T11:52:12;8.80;;;1.60;;
65831;SDS011;52593;42.648;23.332;2023-03-31T11:57:25;8.67;;;1.97;;
65831;SDS011;52593;42.648;23.332;2023-03-31T11:59:58;7.20;;;1.60;;
65831;SDS011;52593;42.648;23.332;2023-03-31T12:05:08;9.25;;;1.73;;
65831;SDS011;52593;42.648;23.332;2023-03-31T12:10:52;6.70;;;1.90;;
65831;SDS011;52593;42.648;23.332;2023-03-31T12:13:32;10.90;;;1.85;;
65831;SDS011;52593;42.648;23.332;2023-03-31T12:18:46;4.20;;;1.20;;
65831;SDS011;52593;42.648;23.332;2023-03-31T12:21:21;8.10;;;2.08;;
65831;SDS011;52593;42.648;23.332;2023-03-31T12:23:50;6.13;;;1.60;;
65831;SDS011;52593;42.648;23.332;2023-03-31T12:29:42;6.55;;;1.75;;
65831;SDS011;52593;42.648;23.332;2023-03-31T12:32:18;5.73;;;1.80;;
65831;SDS011;52593;42.648;23.332;2023-03-31T12:34:50;6.20;;;1.60;;
65831;SDS011;52593;42.648;23.332;2023-03-31T12:40:55;6.68;;;1.60;;
65831;SDS011;52593;42.648;23.332;2023-03-31T12:45:32;5.40;;;1.50;;
65831;SDS011;52593;42.648;23.332;2023-03-31T12:56:19;6.28;;;1.40;;
65831;SDS011;52593;42.648;23.332;2023-03-31T12:58:45;6.53;;;1.40;;
65831;SDS011;52593;42.648;23.332;2023-03-31T13:01:14;6.47;;;1.50;;
65831;SDS011;52593;42.648;23.332;2023-03-31T13:09:02;6.60;;;1.83;;
65831;SDS011;52593;42.648;23.332;2023-03-31T13:17:22;6.60;;;1.60;;
65831;SDS011;52593;42.648;23.332;2023-03-31T13:19:48;5.60;;;1.63;;
65831;SDS011;52593;42.648;23.332;2023-03-31T13:22:34;5.68;;;1.38;;
65831;SDS011;52593;42.648;23.332;2023-03-31T13:28:10;6.10;;;1.80;;
65831;SDS011;52593;42.648;23.332;2023-03-31T13:33:06;4.55;;;1.58;;
65831;SDS011;52593;42.648;23.332;2023-03-31T13:35:36;5.20;;;1.50;;
65831;SDS011;52593;42.648;23.332;2023-03-31T13:38:08;6.03;;;1.70;;
65831;SDS011;52593;42.648;23.332;2023-03-31T13:46:31;7.13;;;1.90;;
65831;SDS011;52593;42.648;23.332;2023-03-31T13:52:25;8.05;;;2.00;;
65831;SDS011;52593;42.648;23.332;2023-03-31T14:07:03;6.07;;;1.70;;
65831;SDS011;52593;42.648;23.332;2023-03-31T14:09:34;6.60;;;1.70;;
65831;SDS011;52593;42.648;23.332;2023-03-31T14:12:01;10.35;;;2.28;;
65831;SDS011;52593;42.648;23.332;2023-03-31T14:14:47;6.85;;;2.10;;
65831;SDS011;52593;42.648;23.332;2023-03-31T14:17:16;5.63;;;2.00;;
65831;SDS011;52593;42.648;23.332;2023-03-31T14:39:11;7.72;;;2.67;;
65831;SDS011;52593;42.648;23.332;2023-03-31T14:41:40;8.53;;;2.10;;
65831;SDS011;52593;42.648;23.332;2023-03-31T14:44:11;5.75;;;1.70;;
65831;SDS011;52593;42.648;23.332;2023-03-31T14:46:39;5.40;;;2.03;;
65831;SDS011;52593;42.648;23.332;2023-03-31T14:49:11;7.53;;;2.20;;
65831;SDS011;52593;42.648;23.332;2023-03-31T14:51:43;7.65;;;1.83;;
65831;SDS011;52593;42.648;23.332;2023-03-31T14:54:16;7.63;;;2.55;;
65831;SDS011;52593;42.648;23.332;2023-03-31T14:56:51;7.32;;;1.90;;
65831;SDS011;52593;42.648;23.332;2023-03-31T14:59:23;6.07;;;2.38;;
65831;SDS011;52593;42.648;23.332;2023-03-31T15:01:51;13.63;;;2.07;;
65831;SDS011;52593;42.648;23.332;2023-03-31T15:04:22;5.47;;;1.80;;
65831;SDS011;52593;42.648;23.332;2023-03-31T15:06:49;8.05;;;1.90;;
65831;SDS011;52593;42.648;23.332;2023-03-31T15:09:21;7.03;;;1.70;;
65831;SDS011;52593;42.648;23.332;2023-03-31T15:12:01;7.15;;;1.70;;
65831;SDS011;52593;42.648;23.332;2023-03-31T15:14:31;6.33;;;2.00;;
65831;SDS011;52593;42.648;23.332;2023-03-31T15:16:59;9.57;;;1.70;;
65831;SDS011;52593;42.648;23.332;2023-03-31T15:19:29;11.05;;;1.92;;
65831;SDS011;52593;42.648;23.332;2023-03-31T15:22:00;10.63;;;2.30;;
65831;SDS011;52593;42.648;23.332;2023-03-31T15:24:30;7.70;;;1.75;;
65831;SDS011;52593;42.648;23.332;2023-03-31T15:29:34;8.82;;;2.10;;
65831;SDS011;52593;42.648;23.332;2023-03-31T15:32:11;9.30;;;1.95;;
65831;SDS011;52593;42.648;23.332;2023-03-31T15:34:39;6.82;;;2.30;;
65831;SDS011;52593;42.648;23.332;2023-03-31T15:37:07;10.87;;;2.10;;
65831;SDS011;52593;42.648;23.332;2023-03-31T15:39:33;8.65;;;2.25;;
65831;SDS011;52593;42.648;23.332;2023-03-31T15:42:02;8.35;;;3.20;;
65831;SDS011;52593;42.648;23.332;2023-03-31T15:47:19;7.25;;;2.10;;
65831;SDS011;52593;42.648;23.332;2023-03-31T15:50:22;6.53;;;1.93;;
65831;SDS011;52593;42.648;23.332;2023-03-31T15:52:51;7.25;;;2.10;;
65831;SDS011;52593;42.648;23.332;2023-03-31T15:57:46;9.63;;;2.30;;
65831;SDS011;52593;42.648;23.332;2023-03-31T16:00:39;7.03;;;2.27;;
65831;SDS011;52593;42.648;23.332;2023-03-31T16:03:03;7.05;;;2.10;;
65831;SDS011;52593;42.648;23.332;2023-03-31T16:05:41;6.70;;;2.45;;
65831;SDS011;52593;42.648;23.332;2023-03-31T16:08:21;9.98;;;3.97;;
65831;SDS011;52593;42.648;23.332;2023-03-31T16:10:48;11.80;;;3.28;;
65831;SDS011;52593;42.648;23.332;2023-03-31T16:13:21;7.83;;;2.60;;
65831;SDS011;52593;42.648;23.332;2023-03-31T16:15:47;9.48;;;2.83;;
65831;SDS011;52593;42.648;23.332;2023-03-31T16:18:16;7.95;;;2.00;;
65831;SDS011;52593;42.648;23.332;2023-03-31T16:20:51;8.30;;;2.55;;
65831;SDS011;52593;42.648;23.332;2023-03-31T16:23:20;7.38;;;2.30;;
65831;SDS011;52593;42.648;23.332;2023-03-31T16:25:50;8.07;;;2.50;;
65831;SDS011;52593;42.648;23.332;2023-03-31T16:28:16;8.68;;;2.10;;
65831;SDS011;52593;42.648;23.332;2023-03-31T16:30:44;9.32;;;2.00;;
65831;SDS011;52593;42.648;23.332;2023-03-31T16:33:11;7.37;;;2.20;;
65831;SDS011;52593;42.648;23.332;2023-03-31T16:35:39;8.85;;;2.10;;
65831;SDS011;52593;42.648;23.332;2023-03-31T16:38:07;7.35;;;2.40;;
65831;SDS011;52593;42.648;23.332;2023-03-31T16:40:45;13.10;;;4.93;;
65831;SDS011;52593;42.648;23.332;2023-03-31T16:43:19;11.40;;;3.45;;
65831;SDS011;52593;42.648;23.332;2023-03-31T16:45:51;11.13;;;3.60;;
65831;SDS011;52593;42.648;23.332;2023-03-31T16:48:19;9.05;;;3.63;;
65831;SDS011;52593;42.648;23.332;2023-03-31T16:50:47;12.95;;;3.72;;
65831;SDS011;52593;42.648;23.332;2023-03-31T16:53:16;15.70;;;4.40;;
65831;SDS011;52593;42.648;23.332;2023-03-31T16:55:43;17.52;;;5.13;;
65831;SDS011;52593;42.648;23.332;2023-03-31T16:58:08;24.13;;;6.27;;
65831;SDS011;52593;42.648;23.332;2023-03-31T17:00:34;14.77;;;4.80;;
65831;SDS011;52593;42.648;23.332;2023-03-31T17:03:01;11.47;;;4.20;;
65831;SDS011;52593;42.648;23.332;2023-03-31T17:05:27;16.35;;;5.55;;
65831;SDS011;52593;42.648;23.332;2023-03-31T17:07:56;12.15;;;4.75;;
65831;SDS011;52593;42.648;23.332;2023-03-31T17:10:22;12.60;;;5.05;;
65831;SDS011;52593;42.648;23.332;2023-03-31T17:12:47;15.07;;;4.20;;
65831;SDS011;52593;42.648;23.332;2023-03-31T17:15:13;11.10;;;3.87;;
65831;SDS011;52593;42.648;23.332;2023-03-31T17:17:38;15.10;;;4.07;;
65831;SDS011;52593;42.648;23.332;2023-03-31T17:20:04;10.47;;;4.20;;
65831;SDS011;52593;42.648;23.332;2023-03-31T17:22:31;11.73;;;4.25;;
65831;SDS011;52593;42.648;23.332;2023-03-31T17:24:57;155.52;;;37.70;;
65831;SDS011;52593;42.648;23.332;2023-03-31T17:27:26;93.97;;;25.57;;
65831;SDS011;52593;42.648;23.332;2023-03-31T17:29:52;39.13;;;12.90;;
65831;SDS011;52593;42.648;23.332;2023-03-31T17:32:18;22.73;;;7.87;;
65831;SDS011;52593;42.648;23.332;2023-03-31T17:34:44;16.93;;;6.20;;
65831;SDS011;52593;42.648;23.332;2023-03-31T17:37:12;22.23;;;7.40;;
65831;SDS011;52593;42.648;23.332;2023-03-31T17:39:37;21.13;;;7.37;;
65831;SDS011;52593;42.648;23.332;2023-03-31T17:42:03;19.52;;;6.75;;
65831;SDS011;52593;42.648;23.332;2023-03-31T17:44:28;17.53;;;6.33;;
65831;SDS011;52593;42.648;23.332;2023-03-31T17:46:54;22.88;;;7.70;;
65831;SDS011;52593;42.648;23.332;2023-03-31T17:49:20;24.30;;;7.43;;
65831;SDS011;52593;42.648;23.332;2023-03-31T17:51:45;16.03;;;5.40;;
65831;SDS011;52593;42.648;23.332;2023-03-31T17:54:11;16.73;;;5.83;;
65831;SDS011;52593;42.648;23.332;2023-03-31T17:56:36;35.40;;;10.13;;
65831;SDS011;52593;42.648;23.332;2023-03-31T17:59:02;17.30;;;5.43;;
65831;SDS011;52593;42.648;23.332;2023-03-31T18:01:28;15.32;;;4.55;;
65831;SDS011;52593;42.648;23.332;2023-03-31T18:03:54;14.43;;;4.75;;
65831;SDS011;52593;42.648;23.332;2023-03-31T18:06:20;15.75;;;4.63;;
65831;SDS011;52593;42.648;23.332;2023-03-31T18:08:46;11.90;;;4.13;;
65831;SDS011;52593;42.648;23.332;2023-03-31T18:11:12;12.93;;;4.63;;
65831;SDS011;52593;42.648;23.332;2023-03-31T18:13:38;14.40;;;5.00;;
65831;SDS011;52593;42.648;23.332;2023-03-31T18:16:04;160.45;;;42.05;;